sensor_id;sensor_type;location;lat;lon;timestamp;temperature;humidity
57390;DHT22;43217;52.694;6.214;2023-02-11T00:01:09;6.80;99.90
57390;DHT22;43217;52.694;6.214;2023-02-11T00:03:36;6.80;99.90
57390;DHT22;43217;52.694;6.214;2023-02-11T00:06:06;6.80;99.90
57390;DHT22;43217;52.694;6.214;2023-02-11T00:08:34;6.80;99.90
57390;DHT22;43217;52.694;6.214;2023-02-11T00:10:59;6.80;99.90
57390;DHT22;43217;52.694;6.214;2023-02-11T00:13:26;6.80;99.90
57390;DHT22;43217;52.694;6.214;2023-02-11T00:15:52;6.80;99.90
57390;DHT22;43217;52.694;6.214;2023-02-11T00:18:18;6.80;99.90
57390;DHT22;43217;52.694;6.214;2023-02-11T00:20:43;6.80;99.90
57390;DHT22;43217;52.694;6.214;2023-02-11T00:23:09;6.80;99.90
57390;DHT22;43217;52.694;6.214;2023-02-11T00:25:43;6.90;99.90
57390;DHT22;43217;52.694;6.214;2023-02-11T00:28:10;6.80;99.90
57390;DHT22;43217;52.694;6.214;2023-02-11T00:30:36;6.80;99.90
57390;DHT22;43217;52.694;6.214;2023-02-11T00:33:02;6.80;99.90
57390;DHT22;43217;52.694;6.214;2023-02-11T00:35:28;6.80;99.90
57390;DHT22;43217;52.694;6.214;2023-02-11T00:37:54;6.70;99.90
57390;DHT22;43217;52.694;6.214;2023-02-11T00:40:20;6.70;99.90
57390;DHT22;43217;52.694;6.214;2023-02-11T00:42:46;6.60;99.90
57390;DHT22;43217;52.694;6.214;2023-02-11T00:45:13;6.60;99.90
57390;DHT22;43217;52.694;6.214;2023-02-11T00:47:38;6.60;99.90
57390;DHT22;43217;52.694;6.214;2023-02-11T00:50:04;6.50;99.90
57390;DHT22;43217;52.694;6.214;2023-02-11T00:52:31;6.50;99.90
57390;DHT22;43217;52.694;6.214;2023-02-11T00:54:57;6.50;99.90
57390;DHT22;43217;52.694;6.214;2023-02-11T00:57:22;6.50;99.90
57390;DHT22;43217;52.694;6.214;2023-02-11T00:59:48;6.50;99.90
57390;DHT22;43217;52.694;6.214;2023-02-11T01:02:15;6.40;99.90
57390;DHT22;43217;52.694;6.214;2023-02-11T01:04:41;6.40;99.90
57390;DHT22;43217;52.694;6.214;2023-02-11T01:07:07;6.30;99.90
57390;DHT22;43217;52.694;6.214;2023-02-11T01:09:33;6.40;99.90
57390;DHT22;43217;52.694;6.214;2023-02-11T01:11:59;6.30;99.90
57390;DHT22;43217;52.694;6.214;2023-02-11T01:14:25;6.40;99.90
57390;DHT22;43217;52.694;6.214;2023-02-11T01:16:50;6.40;99.90
57390;DHT22;43217;52.694;6.214;2023-02-11T01:19:16;6.40;99.90
57390;DHT22;43217;52.694;6.214;2023-02-11T01:21:41;6.50;99.90
57390;DHT22;43217;52.694;6.214;2023-02-11T01:24:07;6.50;99.90
57390;DHT22;43217;52.694;6.214;2023-02-11T01:26:33;6.50;99.90
57390;DHT22;43217;52.694;6.214;2023-02-11T01:28:58;6.60;99.90
57390;DHT22;43217;52.694;6.214;2023-02-11T01:31:25;6.50;99.90
57390;DHT22;43217;52.694;6.214;2023-02-11T01:33:51;6.60;99.90
57390;DHT22;43217;52.694;6.214;2023-02-11T01:36:17;6.60;99.90
57390;DHT22;43217;52.694;6.214;2023-02-11T01:38:42;6.60;99.90
57390;DHT22;43217;52.694;6.214;2023-02-11T01:41:11;6.60;99.90
57390;DHT22;43217;52.694;6.214;2023-02-11T01:43:43;6.60;99.90
57390;DHT22;43217;52.694;6.214;2023-02-11T01:46:31;6.70;99.90
57390;DHT22;43217;52.694;6.214;2023-02-11T01:49:10;6.70;99.90
57390;DHT22;43217;52.694;6.214;2023-02-11T01:54:07;6.70;99.90
57390;DHT22;43217;52.694;6.214;2023-02-11T01:56:54;6.70;99.90
57390;DHT22;43217;52.694;6.214;2023-02-11T01:59:47;6.70;99.90
57390;DHT22;43217;52.694;6.214;2023-02-11T02:02:19;6.70;99.90
57390;DHT22;43217;52.694;6.214;2023-02-11T02:04:52;6.70;99.90
57390;DHT22;43217;52.694;6.214;2023-02-11T02:07:38;6.70;99.90
57390;DHT22;43217;52.694;6.214;2023-02-11T02:10:10;6.70;99.90
57390;DHT22;43217;52.694;6.214;2023-02-11T02:12:38;6.70;99.90
57390;DHT22;43217;52.694;6.214;2023-02-11T02:26:18;6.80;99.90
57390;DHT22;43217;52.694;6.214;2023-02-11T02:37:36;6.80;99.90
57390;DHT22;43217;52.694;6.214;2023-02-11T02:40:11;6.80;99.90
57390;DHT22;43217;52.694;6.214;2023-02-11T02:42:39;6.80;99.90
57390;DHT22;43217;52.694;6.214;2023-02-11T02:45:06;6.80;99.90
57390;DHT22;43217;52.694;6.214;2023-02-11T02:47:33;6.80;99.90
57390;DHT22;43217;52.694;6.214;2023-02-11T02:49:59;6.70;99.90
57390;DHT22;43217;52.694;6.214;2023-02-11T02:52:41;6.80;99.90
57390;DHT22;43217;52.694;6.214;2023-02-11T02:57:55;6.80;99.90
57390;DHT22;43217;52.694;6.214;2023-02-11T03:06:04;6.80;99.90
57390;DHT22;43217;52.694;6.214;2023-02-11T03:09:04;6.80;99.90
57390;DHT22;43217;52.694;6.214;2023-02-11T03:11:31;6.80;99.90
57390;DHT22;43217;52.694;6.214;2023-02-11T03:14:00;6.80;99.90
57390;DHT22;43217;52.694;6.214;2023-02-11T03:16:27;6.80;99.90
57390;DHT22;43217;52.694;6.214;2023-02-11T03:19:13;6.80;99.90
57390;DHT22;43217;52.694;6.214;2023-02-11T03:21:41;6.80;99.90
57390;DHT22;43217;52.694;6.214;2023-02-11T03:24:24;6.80;99.90
57390;DHT22;43217;52.694;6.214;2023-02-11T03:26:54;6.80;99.90
57390;DHT22;43217;52.694;6.214;2023-02-11T03:29:24;6.80;99.90
57390;DHT22;43217;52.694;6.214;2023-02-11T03:31:58;6.90;99.90
57390;DHT22;43217;52.694;6.214;2023-02-11T03:34:54;6.90;99.90
57390;DHT22;43217;52.694;6.214;2023-02-11T03:39:52;6.90;99.90
57390;DHT22;43217;52.694;6.214;2023-02-11T03:42:19;6.80;99.90
57390;DHT22;43217;52.694;6.214;2023-02-11T03:44:53;6.90;99.90
57390;DHT22;43217;52.694;6.214;2023-02-11T03:47:24;6.90;99.90
57390;DHT22;43217;52.694;6.214;2023-02-11T03:49:52;6.90;99.90
57390;DHT22;43217;52.694;6.214;2023-02-11T03:52:21;6.80;99.90
57390;DHT22;43217;52.694;6.214;2023-02-11T03:54:50;6.80;99.90
57390;DHT22;43217;52.694;6.214;2023-02-11T03:57:17;6.80;99.90
57390;DHT22;43217;52.694;6.214;2023-02-11T03:59:54;6.80;99.90
57390;DHT22;43217;52.694;6.214;2023-02-11T04:02:22;6.80;99.90
57390;DHT22;43217;52.694;6.214;2023-02-11T04:04:48;6.80;99.90
57390;DHT22;43217;52.694;6.214;2023-02-11T04:07:14;6.70;99.90
57390;DHT22;43217;52.694;6.214;2023-02-11T04:09:39;6.70;99.90
57390;DHT22;43217;52.694;6.214;2023-02-11T04:12:05;6.60;99.90
57390;DHT22;43217;52.694;6.214;2023-02-11T04:14:31;6.60;99.90
57390;DHT22;43217;52.694;6.214;2023-02-11T04:16:57;6.60;99.90
57390;DHT22;43217;52.694;6.214;2023-02-11T04:19:22;6.60;99.90
57390;DHT22;43217;52.694;6.214;2023-02-11T04:21:48;6.50;99.90
57390;DHT22;43217;52.694;6.214;2023-02-11T04:24:13;6.50;99.90
57390;DHT22;43217;52.694;6.214;2023-02-11T04:26:39;6.50;99.90
57390;DHT22;43217;52.694;6.214;2023-02-11T04:29:04;6.50;99.90
57390;DHT22;43217;52.694;6.214;2023-02-11T04:31:30;6.50;99.90
57390;DHT22;43217;52.694;6.214;2023-02-11T04:33:56;6.40;99.90
57390;DHT22;43217;52.694;6.214;2023-02-11T04:36:21;6.40;99.90
57390;DHT22;43217;52.694;6.214;2023-02-11T04:38:47;6.30;99.90
57390;DHT22;43217;52.694;6.214;2023-02-11T04:41:12;6.30;99.90
57390;DHT22;43217;52.694;6.214;2023-02-11T04:43:38;6.30;99.90
57390;DHT22;43217;52.694;6.214;2023-02-11T04:46:04;6.30;99.90
57390;DHT22;43217;52.694;6.214;2023-02-11T04:48:29;6.30;99.90
57390;DHT22;43217;52.694;6.214;2023-02-11T04:50:55;6.30;99.90
57390;DHT22;43217;52.694;6.214;2023-02-11T04:53:21;6.30;99.90
57390;DHT22;43217;52.694;6.214;2023-02-11T04:55:50;6.30;99.90
57390;DHT22;43217;52.694;6.214;2023-02-11T04:58:16;6.30;99.90
57390;DHT22;43217;52.694;6.214;2023-02-11T05:00:42;6.40;99.90
57390;DHT22;43217;52.694;6.214;2023-02-11T05:03:07;6.40;99.90
57390;DHT22;43217;52.694;6.214;2023-02-11T05:05:33;6.40;99.90
57390;DHT22;43217;52.694;6.214;2023-02-11T05:07:59;6.40;99.90
57390;DHT22;43217;52.694;6.214;2023-02-11T05:10:24;6.40;99.90
57390;DHT22;43217;52.694;6.214;2023-02-11T05:12:50;6.50;99.90
57390;DHT22;43217;52.694;6.214;2023-02-11T05:15:16;6.50;99.90
57390;DHT22;43217;52.694;6.214;2023-02-11T05:17:41;6.60;99.90
57390;DHT22;43217;52.694;6.214;2023-02-11T05:20:07;6.60;99.90
57390;DHT22;43217;52.694;6.214;2023-02-11T05:22:33;6.60;99.90
57390;DHT22;43217;52.694;6.214;2023-02-11T05:24:59;6.60;99.90
57390;DHT22;43217;52.694;6.214;2023-02-11T05:27:24;6.60;99.90
57390;DHT22;43217;52.694;6.214;2023-02-11T05:29:50;6.60;99.90
57390;DHT22;43217;52.694;6.214;2023-02-11T05:32:17;6.60;99.90
57390;DHT22;43217;52.694;6.214;2023-02-11T05:34:42;6.70;99.90
57390;DHT22;43217;52.694;6.214;2023-02-11T05:37:08;6.70;99.90
57390;DHT22;43217;52.694;6.214;2023-02-11T05:39:38;6.70;99.90
57390;DHT22;43217;52.694;6.214;2023-02-11T05:42:05;6.70;99.90
57390;DHT22;43217;52.694;6.214;2023-02-11T05:44:30;6.70;99.90
57390;DHT22;43217;52.694;6.214;2023-02-11T05:46:56;6.70;99.90
57390;DHT22;43217;52.694;6.214;2023-02-11T05:49:22;6.70;99.90
57390;DHT22;43217;52.694;6.214;2023-02-11T05:51:50;6.70;99.90
57390;DHT22;43217;52.694;6.214;2023-02-11T05:54:16;6.80;99.90
57390;DHT22;43217;52.694;6.214;2023-02-11T05:56:41;6.80;99.90
57390;DHT22;43217;52.694;6.214;2023-02-11T05:59:07;6.70;99.90
57390;DHT22;43217;52.694;6.214;2023-02-11T06:01:34;6.80;99.90
57390;DHT22;43217;52.694;6.214;2023-02-11T06:03:59;6.80;99.90
57390;DHT22;43217;52.694;6.214;2023-02-11T06:06:32;6.80;99.90
57390;DHT22;43217;52.694;6.214;2023-02-11T06:09:00;6.80;99.90
57390;DHT22;43217;52.694;6.214;2023-02-11T06:11:25;6.80;99.90
57390;DHT22;43217;52.694;6.214;2023-02-11T06:13:51;6.80;99.90
57390;DHT22;43217;52.694;6.214;2023-02-11T06:16:17;6.80;99.90
57390;DHT22;43217;52.694;6.214;2023-02-11T06:18:42;6.80;99.90
57390;DHT22;43217;52.694;6.214;2023-02-11T06:21:09;6.80;99.90
57390;DHT22;43217;52.694;6.214;2023-02-11T06:23:35;6.80;99.90
57390;DHT22;43217;52.694;6.214;2023-02-11T06:26:03;6.90;99.90
57390;DHT22;43217;52.694;6.214;2023-02-11T06:28:29;6.80;99.90
57390;DHT22;43217;52.694;6.214;2023-02-11T06:31:02;6.90;99.90
57390;DHT22;43217;52.694;6.214;2023-02-11T06:33:28;6.90;99.90
57390;DHT22;43217;52.694;6.214;2023-02-11T06:35:54;6.90;99.90
57390;DHT22;43217;52.694;6.214;2023-02-11T06:38:19;6.80;99.90
57390;DHT22;43217;52.694;6.214;2023-02-11T06:40:49;6.90;99.90
57390;DHT22;43217;52.694;6.214;2023-02-11T06:43:15;6.90;99.90
57390;DHT22;43217;52.694;6.214;2023-02-11T06:45:41;6.90;99.90
57390;DHT22;43217;52.694;6.214;2023-02-11T06:48:07;6.90;99.90
57390;DHT22;43217;52.694;6.214;2023-02-11T06:50:32;6.90;99.90
57390;DHT22;43217;52.694;6.214;2023-02-11T06:53:06;6.90;99.90
57390;DHT22;43217;52.694;6.214;2023-02-11T06:55:33;7.00;99.90
57390;DHT22;43217;52.694;6.214;2023-02-11T06:57:59;6.90;99.90
57390;DHT22;43217;52.694;6.214;2023-02-11T07:00:25;6.90;99.90
57390;DHT22;43217;52.694;6.214;2023-02-11T07:02:51;6.90;99.90
57390;DHT22;43217;52.694;6.214;2023-02-11T07:05:16;6.90;99.90
57390;DHT22;43217;52.694;6.214;2023-02-11T07:07:42;7.00;99.90
57390;DHT22;43217;52.694;6.214;2023-02-11T07:10:07;7.00;99.90
57390;DHT22;43217;52.694;6.214;2023-02-11T07:12:33;7.00;99.90
57390;DHT22;43217;52.694;6.214;2023-02-11T07:14:59;7.00;99.90
57390;DHT22;43217;52.694;6.214;2023-02-11T07:17:24;7.00;99.90
57390;DHT22;43217;52.694;6.214;2023-02-11T07:19:50;7.00;99.90
57390;DHT22;43217;52.694;6.214;2023-02-11T07:22:16;7.00;99.90
57390;DHT22;43217;52.694;6.214;2023-02-11T07:24:42;7.00;99.90
57390;DHT22;43217;52.694;6.214;2023-02-11T07:27:08;7.00;99.90
57390;DHT22;43217;52.694;6.214;2023-02-11T07:29:33;7.00;99.90
57390;DHT22;43217;52.694;6.214;2023-02-11T07:31:59;7.00;99.90
57390;DHT22;43217;52.694;6.214;2023-02-11T07:34:25;7.00;99.90
57390;DHT22;43217;52.694;6.214;2023-02-11T07:36:50;7.10;99.90
57390;DHT22;43217;52.694;6.214;2023-02-11T07:39:16;7.10;99.90
57390;DHT22;43217;52.694;6.214;2023-02-11T07:41:42;7.10;99.90
57390;DHT22;43217;52.694;6.214;2023-02-11T07:44:08;7.10;99.90
57390;DHT22;43217;52.694;6.214;2023-02-11T07:46:35;7.10;99.90
57390;DHT22;43217;52.694;6.214;2023-02-11T07:49:01;7.10;99.90
57390;DHT22;43217;52.694;6.214;2023-02-11T07:51:28;7.10;99.90
57390;DHT22;43217;52.694;6.214;2023-02-11T07:53:56;7.10;99.90
57390;DHT22;43217;52.694;6.214;2023-02-11T07:56:22;7.10;99.90
57390;DHT22;43217;52.694;6.214;2023-02-11T07:58:49;7.20;99.90
57390;DHT22;43217;52.694;6.214;2023-02-11T08:01:20;7.20;99.90
57390;DHT22;43217;52.694;6.214;2023-02-11T08:03:50;7.20;99.90
57390;DHT22;43217;52.694;6.214;2023-02-11T08:06:18;7.20;99.90
57390;DHT22;43217;52.694;6.214;2023-02-11T08:08:45;7.30;99.90
57390;DHT22;43217;52.694;6.214;2023-02-11T08:11:23;7.30;99.90
57390;DHT22;43217;52.694;6.214;2023-02-11T08:13:50;7.30;99.90
57390;DHT22;43217;52.694;6.214;2023-02-11T08:16:22;7.30;99.90
57390;DHT22;43217;52.694;6.214;2023-02-11T08:18:48;7.30;99.90
57390;DHT22;43217;52.694;6.214;2023-02-11T08:21:14;7.40;99.90
57390;DHT22;43217;52.694;6.214;2023-02-11T08:23:41;7.40;99.90
57390;DHT22;43217;52.694;6.214;2023-02-11T08:26:13;7.40;99.90
57390;DHT22;43217;52.694;6.214;2023-02-11T08:28:41;7.40;99.90
57390;DHT22;43217;52.694;6.214;2023-02-11T08:31:09;7.40;99.90
57390;DHT22;43217;52.694;6.214;2023-02-11T08:33:35;7.50;99.90
57390;DHT22;43217;52.694;6.214;2023-02-11T08:36:10;7.50;99.90
57390;DHT22;43217;52.694;6.214;2023-02-11T08:38:36;7.50;99.90
57390;DHT22;43217;52.694;6.214;2023-02-11T08:41:02;7.50;99.90
57390;DHT22;43217;52.694;6.214;2023-02-11T08:43:28;7.50;99.90
57390;DHT22;43217;52.694;6.214;2023-02-11T08:45:54;7.50;99.90
57390;DHT22;43217;52.694;6.214;2023-02-11T08:48:19;7.50;99.90
57390;DHT22;43217;52.694;6.214;2023-02-11T08:50:45;7.50;99.90
57390;DHT22;43217;52.694;6.214;2023-02-11T08:53:10;7.60;99.90
57390;DHT22;43217;52.694;6.214;2023-02-11T08:55:36;7.60;99.90
57390;DHT22;43217;52.694;6.214;2023-02-11T08:58:01;7.60;99.90
57390;DHT22;43217;52.694;6.214;2023-02-11T09:00:27;7.70;99.90
57390;DHT22;43217;52.694;6.214;2023-02-11T09:02:53;7.70;99.90
57390;DHT22;43217;52.694;6.214;2023-02-11T09:05:18;7.80;99.90
57390;DHT22;43217;52.694;6.214;2023-02-11T09:07:44;7.80;99.90
57390;DHT22;43217;52.694;6.214;2023-02-11T09:10:10;7.80;99.90
57390;DHT22;43217;52.694;6.214;2023-02-11T09:12:35;7.90;99.90
57390;DHT22;43217;52.694;6.214;2023-02-11T09:15:01;7.90;99.90
57390;DHT22;43217;52.694;6.214;2023-02-11T09:17:27;8.00;99.90
57390;DHT22;43217;52.694;6.214;2023-02-11T09:19:52;8.00;99.90
57390;DHT22;43217;52.694;6.214;2023-02-11T09:22:18;8.00;99.90
57390;DHT22;43217;52.694;6.214;2023-02-11T09:24:43;8.00;99.90
57390;DHT22;43217;52.694;6.214;2023-02-11T09:27:09;8.10;99.90
57390;DHT22;43217;52.694;6.214;2023-02-11T09:29:35;8.10;99.90
57390;DHT22;43217;52.694;6.214;2023-02-11T09:32:00;8.20;99.90
57390;DHT22;43217;52.694;6.214;2023-02-11T09:34:26;8.20;99.90
57390;DHT22;43217;52.694;6.214;2023-02-11T09:36:51;8.20;99.90
57390;DHT22;43217;52.694;6.214;2023-02-11T09:39:18;8.30;99.90
57390;DHT22;43217;52.694;6.214;2023-02-11T09:42:07;8.30;99.90
57390;DHT22;43217;52.694;6.214;2023-02-11T09:44:35;8.40;99.90
57390;DHT22;43217;52.694;6.214;2023-02-11T09:47:23;8.40;99.90
57390;DHT22;43217;52.694;6.214;2023-02-11T09:49:49;8.50;99.90
57390;DHT22;43217;52.694;6.214;2023-02-11T09:52:24;8.50;99.90
57390;DHT22;43217;52.694;6.214;2023-02-11T09:54:59;8.50;99.90
57390;DHT22;43217;52.694;6.214;2023-02-11T09:57:29;8.60;99.90
57390;DHT22;43217;52.694;6.214;2023-02-11T09:59:56;8.60;99.90
57390;DHT22;43217;52.694;6.214;2023-02-11T10:02:41;8.60;99.90
57390;DHT22;43217;52.694;6.214;2023-02-11T10:08:11;8.70;99.90
57390;DHT22;43217;52.694;6.214;2023-02-11T10:10:49;8.80;99.90
57390;DHT22;43217;52.694;6.214;2023-02-11T10:13:37;8.80;99.90
57390;DHT22;43217;52.694;6.214;2023-02-11T10:16:20;8.80;99.90
57390;DHT22;43217;52.694;6.214;2023-02-11T10:18:58;8.80;99.90
57390;DHT22;43217;52.694;6.214;2023-02-11T10:24:18;8.90;99.90
57390;DHT22;43217;52.694;6.214;2023-02-11T10:26:44;8.90;99.90
57390;DHT22;43217;52.694;6.214;2023-02-11T10:29:40;9.00;99.90
57390;DHT22;43217;52.694;6.214;2023-02-11T10:32:27;9.00;99.90
57390;DHT22;43217;52.694;6.214;2023-02-11T10:34:59;9.00;99.90
57390;DHT22;43217;52.694;6.214;2023-02-11T10:37:26;9.10;99.90
57390;DHT22;43217;52.694;6.214;2023-02-11T10:39:51;9.10;99.90
57390;DHT22;43217;52.694;6.214;2023-02-11T10:42:17;9.10;99.90
57390;DHT22;43217;52.694;6.214;2023-02-11T10:45:03;9.10;99.90
57390;DHT22;43217;52.694;6.214;2023-02-11T10:47:33;9.10;99.90
57390;DHT22;43217;52.694;6.214;2023-02-11T10:50:34;9.10;99.90
57390;DHT22;43217;52.694;6.214;2023-02-11T10:53:15;9.10;99.90
57390;DHT22;43217;52.694;6.214;2023-02-11T10:55:50;9.10;99.90
57390;DHT22;43217;52.694;6.214;2023-02-11T10:58:29;9.10;99.90
57390;DHT22;43217;52.694;6.214;2023-02-11T11:00:57;9.20;99.90
57390;DHT22;43217;52.694;6.214;2023-02-11T11:03:28;9.10;99.90
57390;DHT22;43217;52.694;6.214;2023-02-11T11:06:05;9.20;99.90
57390;DHT22;43217;52.694;6.214;2023-02-11T11:11:19;9.20;99.90
57390;DHT22;43217;52.694;6.214;2023-02-11T11:16:20;9.20;99.90
57390;DHT22;43217;52.694;6.214;2023-02-11T11:18:51;9.30;99.90
57390;DHT22;43217;52.694;6.214;2023-02-11T11:21:24;9.20;99.90
57390;DHT22;43217;52.694;6.214;2023-02-11T11:23:56;9.30;99.90
57390;DHT22;43217;52.694;6.214;2023-02-11T11:26:24;9.30;99.90
57390;DHT22;43217;52.694;6.214;2023-02-11T11:31:34;9.40;99.90
57390;DHT22;43217;52.694;6.214;2023-02-11T11:34:16;9.50;99.90
57390;DHT22;43217;52.694;6.214;2023-02-11T11:36:43;9.50;99.90
57390;DHT22;43217;52.694;6.214;2023-02-11T11:39:27;9.50;99.90
57390;DHT22;43217;52.694;6.214;2023-02-11T11:41:56;9.50;99.90
57390;DHT22;43217;52.694;6.214;2023-02-11T11:44:33;9.50;99.90
57390;DHT22;43217;52.694;6.214;2023-02-11T11:55:30;9.70;99.90
57390;DHT22;43217;52.694;6.214;2023-02-11T11:57:57;9.70;99.90
57390;DHT22;43217;52.694;6.214;2023-02-11T12:00:28;9.70;99.90
57390;DHT22;43217;52.694;6.214;2023-02-11T12:03:09;9.80;99.90
57390;DHT22;43217;52.694;6.214;2023-02-11T12:10:59;9.80;99.90
57390;DHT22;43217;52.694;6.214;2023-02-11T12:17:00;9.90;99.90
57390;DHT22;43217;52.694;6.214;2023-02-11T12:22:25;9.90;99.90
57390;DHT22;43217;52.694;6.214;2023-02-11T12:27:43;9.90;99.90
57390;DHT22;43217;52.694;6.214;2023-02-11T12:30:31;10.00;99.90
57390;DHT22;43217;52.694;6.214;2023-02-11T12:41:29;10.10;99.90
57390;DHT22;43217;52.694;6.214;2023-02-11T12:44:51;10.10;99.90
57390;DHT22;43217;52.694;6.214;2023-02-11T12:50:02;10.30;99.90
57390;DHT22;43217;52.694;6.214;2023-02-11T12:55:20;10.30;99.90
57390;DHT22;43217;52.694;6.214;2023-02-11T12:57:50;10.30;99.90
57390;DHT22;43217;52.694;6.214;2023-02-11T13:00:22;10.30;99.90
57390;DHT22;43217;52.694;6.214;2023-02-11T13:02:53;10.30;99.90
57390;DHT22;43217;52.694;6.214;2023-02-11T13:05:28;10.30;99.90
57390;DHT22;43217;52.694;6.214;2023-02-11T13:08:22;10.30;99.90
57390;DHT22;43217;52.694;6.214;2023-02-11T13:10:53;10.40;99.90
57390;DHT22;43217;52.694;6.214;2023-02-11T13:13:24;10.40;99.90
57390;DHT22;43217;52.694;6.214;2023-02-11T13:15:55;10.40;99.90
57390;DHT22;43217;52.694;6.214;2023-02-11T13:23:57;10.40;99.90
57390;DHT22;43217;52.694;6.214;2023-02-11T13:32:10;10.50;99.90
57390;DHT22;43217;52.694;6.214;2023-02-11T13:37:37;10.60;99.90
57390;DHT22;43217;52.694;6.214;2023-02-11T13:40:23;10.60;99.90
57390;DHT22;43217;52.694;6.214;2023-02-11T13:42:58;10.60;99.90
57390;DHT22;43217;52.694;6.214;2023-02-11T13:45:34;10.60;99.90
57390;DHT22;43217;52.694;6.214;2023-02-11T13:48:05;10.60;99.90
57390;DHT22;43217;52.694;6.214;2023-02-11T13:50:37;10.60;99.90
57390;DHT22;43217;52.694;6.214;2023-02-11T13:53:05;10.70;99.90
57390;DHT22;43217;52.694;6.214;2023-02-11T13:55:33;10.70;99.90
57390;DHT22;43217;52.694;6.214;2023-02-11T14:19:35;10.50;99.90
57390;DHT22;43217;52.694;6.214;2023-02-11T14:25:00;10.50;99.90
57390;DHT22;43217;52.694;6.214;2023-02-11T14:27:28;10.50;99.90
57390;DHT22;43217;52.694;6.214;2023-02-11T14:33:25;10.40;99.90
57390;DHT22;43217;52.694;6.214;2023-02-11T14:38:57;10.40;99.90
57390;DHT22;43217;52.694;6.214;2023-02-11T14:41:28;10.40;99.90
57390;DHT22;43217;52.694;6.214;2023-02-11T14:43:57;10.40;99.90
57390;DHT22;43217;52.694;6.214;2023-02-11T14:46:24;10.40;99.90
57390;DHT22;43217;52.694;6.214;2023-02-11T14:48:53;10.40;99.90
57390;DHT22;43217;52.694;6.214;2023-02-11T14:51:24;10.40;99.90
57390;DHT22;43217;52.694;6.214;2023-02-11T14:53:54;10.40;99.90
57390;DHT22;43217;52.694;6.214;2023-02-11T14:56:23;10.40;99.90
57390;DHT22;43217;52.694;6.214;2023-02-11T14:58:51;10.30;99.90
57390;DHT22;43217;52.694;6.214;2023-02-11T15:01:35;10.30;99.90
57390;DHT22;43217;52.694;6.214;2023-02-11T15:04:13;10.30;99.90
57390;DHT22;43217;52.694;6.214;2023-02-11T15:06:47;10.30;99.90
57390;DHT22;43217;52.694;6.214;2023-02-11T15:12:02;10.20;99.90
57390;DHT22;43217;52.694;6.214;2023-02-11T15:14:32;10.20;99.90
57390;DHT22;43217;52.694;6.214;2023-02-11T15:17:05;10.10;99.90
57390;DHT22;43217;52.694;6.214;2023-02-11T15:19:40;10.10;99.90
57390;DHT22;43217;52.694;6.214;2023-02-11T15:22:22;10.10;99.90
57390;DHT22;43217;52.694;6.214;2023-02-11T15:25:08;10.10;99.90
57390;DHT22;43217;52.694;6.214;2023-02-11T15:27:44;10.00;99.90
57390;DHT22;43217;52.694;6.214;2023-02-11T15:32:48;10.10;99.90
57390;DHT22;43217;52.694;6.214;2023-02-11T15:35:15;10.00;99.90
57390;DHT22;43217;52.694;6.214;2023-02-11T15:37:42;10.00;99.90
57390;DHT22;43217;52.694;6.214;2023-02-11T15:40:15;10.00;99.90
57390;DHT22;43217;52.694;6.214;2023-02-11T15:42:58;10.00;99.90
57390;DHT22;43217;52.694;6.214;2023-02-11T15:45:41;9.90;99.90
57390;DHT22;43217;52.694;6.214;2023-02-11T15:48:23;9.90;99.90
57390;DHT22;43217;52.694;6.214;2023-02-11T15:50:57;9.90;99.90
57390;DHT22;43217;52.694;6.214;2023-02-11T15:53:37;9.90;99.90
57390;DHT22;43217;52.694;6.214;2023-02-11T15:56:39;9.90;99.90
57390;DHT22;43217;52.694;6.214;2023-02-11T15:59:19;9.80;99.90
57390;DHT22;43217;52.694;6.214;2023-02-11T16:01:50;9.80;99.90
57390;DHT22;43217;52.694;6.214;2023-02-11T16:04:21;9.80;99.90
57390;DHT22;43217;52.694;6.214;2023-02-11T16:06:48;9.80;99.90
57390;DHT22;43217;52.694;6.214;2023-02-11T16:17:09;9.60;99.90
57390;DHT22;43217;52.694;6.214;2023-02-11T16:19:41;9.60;99.90
57390;DHT22;43217;52.694;6.214;2023-02-11T16:22:28;9.50;99.90
57390;DHT22;43217;52.694;6.214;2023-02-11T16:24:57;9.50;99.90
57390;DHT22;43217;52.694;6.214;2023-02-11T16:27:46;9.50;99.90
57390;DHT22;43217;52.694;6.214;2023-02-11T16:30:36;9.50;99.90
57390;DHT22;43217;52.694;6.214;2023-02-11T16:33:03;9.50;99.90
57390;DHT22;43217;52.694;6.214;2023-02-11T16:35:29;9.40;99.90
57390;DHT22;43217;52.694;6.214;2023-02-11T16:37:55;9.40;99.90
57390;DHT22;43217;52.694;6.214;2023-02-11T16:40:21;9.40;99.90
57390;DHT22;43217;52.694;6.214;2023-02-11T16:42:48;9.40;99.90
57390;DHT22;43217;52.694;6.214;2023-02-11T16:45:14;9.40;99.90
57390;DHT22;43217;52.694;6.214;2023-02-11T16:47:41;9.40;99.90
57390;DHT22;43217;52.694;6.214;2023-02-11T16:50:11;9.30;99.90
57390;DHT22;43217;52.694;6.214;2023-02-11T16:52:43;9.30;99.90
57390;DHT22;43217;52.694;6.214;2023-02-11T16:55:11;9.30;99.90
57390;DHT22;43217;52.694;6.214;2023-02-11T16:57:37;9.30;99.90
57390;DHT22;43217;52.694;6.214;2023-02-11T17:00:04;9.30;99.90
57390;DHT22;43217;52.694;6.214;2023-02-11T17:02:33;9.30;99.90
57390;DHT22;43217;52.694;6.214;2023-02-11T17:05:06;9.20;99.90
57390;DHT22;43217;52.694;6.214;2023-02-11T17:07:33;9.30;99.90
57390;DHT22;43217;52.694;6.214;2023-02-11T17:09:58;9.20;99.90
57390;DHT22;43217;52.694;6.214;2023-02-11T17:12:24;9.20;99.90
57390;DHT22;43217;52.694;6.214;2023-02-11T17:14:51;9.20;99.90
57390;DHT22;43217;52.694;6.214;2023-02-11T17:17:17;9.20;99.90
57390;DHT22;43217;52.694;6.214;2023-02-11T17:19:43;9.20;99.90
57390;DHT22;43217;52.694;6.214;2023-02-11T17:22:10;9.20;99.90
57390;DHT22;43217;52.694;6.214;2023-02-11T17:24:35;9.20;99.90
57390;DHT22;43217;52.694;6.214;2023-02-11T17:27:01;9.10;99.90
57390;DHT22;43217;52.694;6.214;2023-02-11T17:29:27;9.10;99.90
57390;DHT22;43217;52.694;6.214;2023-02-11T17:31:52;9.10;99.90
57390;DHT22;43217;52.694;6.214;2023-02-11T17:34:20;9.10;99.90
57390;DHT22;43217;52.694;6.214;2023-02-11T17:36:46;9.10;99.90
57390;DHT22;43217;52.694;6.214;2023-02-11T17:39:12;9.00;99.90
57390;DHT22;43217;52.694;6.214;2023-02-11T17:41:39;9.00;99.90
57390;DHT22;43217;52.694;6.214;2023-02-11T17:44:06;9.00;99.90
57390;DHT22;43217;52.694;6.214;2023-02-11T17:46:34;9.00;99.90
57390;DHT22;43217;52.694;6.214;2023-02-11T17:49:00;8.90;99.90
57390;DHT22;43217;52.694;6.214;2023-02-11T17:53:59;9.00;99.90
57390;DHT22;43217;52.694;6.214;2023-02-11T17:56:25;8.90;99.90
57390;DHT22;43217;52.694;6.214;2023-02-11T17:58:50;9.00;99.90
57390;DHT22;43217;52.694;6.214;2023-02-11T18:01:18;8.90;99.90
57390;DHT22;43217;52.694;6.214;2023-02-11T18:03:44;8.90;99.90
57390;DHT22;43217;52.694;6.214;2023-02-11T18:06:10;8.90;99.90
57390;DHT22;43217;52.694;6.214;2023-02-11T18:08:36;8.90;99.90
57390;DHT22;43217;52.694;6.214;2023-02-11T18:11:07;8.90;99.90
57390;DHT22;43217;52.694;6.214;2023-02-11T18:13:33;8.90;99.90
57390;DHT22;43217;52.694;6.214;2023-02-11T18:16:03;8.90;99.90
57390;DHT22;43217;52.694;6.214;2023-02-11T18:18:29;8.90;99.90
57390;DHT22;43217;52.694;6.214;2023-02-11T18:20:59;8.90;99.90
57390;DHT22;43217;52.694;6.214;2023-02-11T18:23:26;8.80;99.90
57390;DHT22;43217;52.694;6.214;2023-02-11T18:25:52;8.80;99.90